Details From LEZL - Sevilla
To GCHI - Hierro
Flight Number -
Tags Generated
Created
Modified
Stats Distance 835 nm / 1,547 km
Max Altitude 0 ft / 0 m
Waypoints 4
Social Downloads 2
Likes 0
Share VATSIM

Download

Looking for another format? Having issues loading an existing format? Contact us
Advertisement - Login to hide

Notes

Generated

Route

LEZL SUNID MITLA GCHI

ID Type Via Altitude Latitude Longitude Leg Dist Tot Dist Heading (true) Name
O LEZL APT - 0 ft / 0 m 37.41788˚ -5.91208˚ - 0 nm - -
SUNID FIX - 0 ft / 0 m 34.61972˚ -10.15667˚ 265 nm 265 nm 232° / 230° -
MITLA FIX - 0 ft / 0 m 31.30833˚ -14.08222˚ 280 nm 546 nm 226° / 224° -
O GCHI APT - 0 ft / 0 m 27.81985˚ -17.88997˚ 288 nm 835 nm 224° / 223° -

Altitude Profile

Advertisement - Login to hide

Weather


0- 5 10 15 20 25 30 35+ Temperature / ° C

Clouds and Precipitation
Forecast for 2017-12-16 00:00 UTC. Updated an hour ago

Ground ~20,000 ft ~40,000 ft Winds

LEZL

Details ICAO LEZL (SVQ)
Name Sevilla
Region Spain
Timezone Europe/Madrid (UTC+1.0)
Stats Elevation 111 ft / 34 m (AMSL)
Location 37.417939° -5.893093°
Runways 1
Magnetic Variation 1.296° W

METAR

LEZL 152200Z 31007KT 260V350 9999 FEW008 SCT018 BKN025 16/12 Q1014 NOSIG

Decode

TAF

TAF LEZL 152000Z 1521/1621 36006KT 9999 FEW035 TX16/1615Z TN06/1607Z TEMPO 1610/1615 06010KT

Decode

Departure Runways

ID Width Length Bearing (true) Bearing (mag) Surface Threshold Offset Overrun Length
09 148 ft / 45 m 11,008 ft / 3,355 m 89.75° 91.05° Asphalt 0 ft / 0 m 0 ft / 0 m
27 148 ft / 45 m 11,008 ft / 3,355 m 269.77° 271.07° Asphalt 0 ft / 0 m 0 ft / 0 m

GCHI

Details ICAO GCHI (VDE)
Name Hierro
Region Canary Islands
Timezone Atlantic/Canary (UTC+0.0)
Stats Elevation 337 ft / 103 m (AMSL)
Location 27.814848° -17.887052°
Runways 1
Magnetic Variation 5.628° W

METAR

GCHI 152200Z AUTO 01014KT 340V040 9999 BKN035/// 20/14 Q1025

Decode

TAF

TAF GCHI 152000Z 1521/1621 03016KT 9999 FEW030 TX21/1614Z TN19/1606Z TEMPO 1521/1610 33006KT PROB40 TEMPO 1612/1621 4500 RA

Decode

Destination Runways

ID Width Length Bearing (true) Bearing (mag) Surface Threshold Offset Overrun Length
16 98 ft / 30 m 4,110 ft / 1,253 m 152.71° 158.34° Asphalt 0 ft / 0 m 112 ft / 34 m
34 98 ft / 30 m 4,110 ft / 1,253 m 332.71° 338.34° Asphalt 0 ft / 0 m 105 ft / 32 m